Time;durP1;ratioP1;P1;durP2;ratioP2;P2;SDS_P1;SDS_P2;PMS_P1;PMS_P2;Temp;Humidity;BMP_temperature;BMP_pressure;BME280_temperature;BME280_humidity;BME280_pressure;Samples;Min_cycle;Max_cycle;Signal;HPM_P1;HPM_P2
2021/04/06 00:01:00;;;;;;;0.77;0.40;;;20.20;45.00;;;;;;7711959;23;20039;-65
2021/04/06 00:04:06;;;;;;;1.17;0.55;;;20.20;44.90;;;;;;7711962;23;20004;-65
2021/04/06 00:07:09;;;;;;;0.85;0.50;;;20.20;45.00;;;;;;7711650;23;20017;-65
2021/04/06 00:10:37;;;;;;;1.75;0.60;;;20.20;44.90;;;;;;7711448;23;20012;-65
2021/04/06 00:13:38;;;;;;;1.58;0.55;;;20.20;44.90;;;;;;7711282;23;20031;-65
2021/04/06 00:16:41;;;;;;;2.28;1.05;;;20.20;44.90;;;;;;7711762;23;20055;-65
2021/04/06 00:19:44;;;;;;;2.60;0.90;;;20.20;44.90;;;;;;7711957;23;20008;-64
2021/04/06 00:22:47;;;;;;;1.77;0.70;;;20.20;45.00;;;;;;7710681;23;20460;-65
2021/04/06 00:25:49;;;;;;;2.80;1.05;;;20.20;44.90;;;;;;7711598;23;20009;-65
2021/04/06 00:28:51;;;;;;;4.15;1.05;;;20.20;45.00;;;;;;7711317;23;20813;-65
2021/04/06 00:31:55;;;;;;;4.07;1.15;;;20.20;44.90;;;;;;7710939;23;20009;-65
2021/04/06 00:34:59;;;;;;;5.53;1.27;;;20.20;44.90;;;;;;7711058;23;20015;-65
2021/04/06 00:38:01;;;;;;;5.90;1.13;;;20.20;44.90;;;;;;7710977;23;20478;-65
2021/04/06 00:41:05;;;;;;;4.43;1.38;;;20.20;44.90;;;;;;7710918;23;20012;-64
2021/04/06 00:44:13;;;;;;;4.28;1.35;;;20.20;45.00;;;;;;7710505;23;20004;-64
2021/04/06 00:47:22;;;;;;;8.50;1.70;;;20.20;45.00;;;;;;7711189;23;20071;-65
2021/04/06 00:50:35;;;;;;;8.88;2.15;;;20.20;45.10;;;;;;7710291;23;20020;-65
2021/04/06 00:54:02;;;;;;;11.23;2.35;;;20.20;45.10;;;;;;7710908;23;20067;-65
2021/04/06 00:57:07;;;;;;;9.98;1.90;;;20.20;45.20;;;;;;7710780;23;20090;-65
2021/04/06 01:00:12;;;;;;;10.88;2.22;;;20.20;45.10;;;;;;7711380;23;20013;-65
2021/04/06 01:03:16;;;;;;;7.45;1.98;;;20.20;45.10;;;;;;7710512;23;20059;-65
2021/04/06 01:06:17;;;;;;;8.20;2.17;;;20.20;45.10;;;;;;7710899;23;20011;-65
2021/04/06 01:09:27;;;;;;;11.63;1.98;;;20.20;45.20;;;;;;7710809;23;20428;-65
2021/04/06 01:12:28;;;;;;;9.32;1.90;;;20.20;45.20;;;;;;7710616;23;20096;-65
2021/04/06 01:15:32;;;;;;;11.70;2.35;;;20.20;45.20;;;;;;7710375;23;20036;-64
2021/04/06 01:18:34;;;;;;;10.23;2.08;;;20.20;45.30;;;;;;7710286;23;20313;-65
2021/04/06 01:21:34;;;;;;;11.77;2.40;;;20.20;45.20;;;;;;7710419;23;20460;-65
2021/04/06 01:24:36;;;;;;;14.77;3.10;;;20.20;45.30;;;;;;7710716;23;20011;-65
2021/04/06 01:27:36;;;;;;;8.57;2.35;;;20.20;45.20;;;;;;7710335;23;20008;-65
2021/04/06 01:30:45;;;;;;;7.85;2.08;;;20.20;45.30;;;;;;7710334;23;20023;-65
2021/04/06 01:33:46;;;;;;;9.23;2.13;;;20.20;45.20;;;;;;7710648;23;20001;-65
2021/04/06 01:36:47;;;;;;;9.23;2.17;;;20.20;45.30;;;;;;7710817;23;20467;-64
2021/04/06 01:39:51;;;;;;;8.35;2.10;;;20.20;45.20;;;;;;7710311;23;20012;-64
2021/04/06 01:42:52;;;;;;;11.27;2.13;;;20.20;45.20;;;;;;7710887;23;20009;-64
2021/04/06 01:46:13;;;;;;;9.90;2.58;;;20.20;45.20;;;;;;7710588;23;20008;-65
2021/04/06 01:49:15;;;;;;;14.15;2.50;;;20.20;45.20;;;;;;7710095;23;20166;-65
2021/04/06 01:52:16;;;;;;;12.57;3.97;;;20.20;45.20;;;;;;7710112;23;20142;-65
2021/04/06 01:55:19;;;;;;;13.27;3.90;;;20.20;46.80;;;;;;7710290;23;20009;-65
2021/04/06 01:58:23;;;;;;;10.88;3.00;;;20.20;48.20;;;;;;7710216;23;20004;-65
2021/04/06 02:01:24;;;;;;;10.98;3.03;;;20.20;48.00;;;;;;7709861;23;20008;-64
2021/04/06 02:04:26;;;;;;;11.45;3.03;;;20.20;47.90;;;;;;7710226;23;20012;-65
2021/04/06 02:07:31;;;;;;;8.43;2.20;;;20.20;47.50;;;;;;7710147;23;20028;-65
2021/04/06 02:10:33;;;;;;;8.30;2.35;;;20.20;47.00;;;;;;7708216;23;20019;-65
2021/04/06 02:13:33;;;;;;;8.93;2.45;;;20.20;46.70;;;;;;7709773;23;20471;-65
2021/04/06 02:16:57;;;;;;;10.23;2.47;;;20.20;46.40;;;;;;7710109;23;20008;-65
2021/04/06 02:19:58;;;;;;;5.88;1.98;;;20.20;46.30;;;;;;7709488;23;20012;-64
2021/04/06 02:23:02;;;;;;;6.72;2.17;;;20.20;46.20;;;;;;7710265;23;20009;-65
2021/04/06 02:26:03;;;;;;;6.88;2.33;;;20.20;46.10;;;;;;7709539;23;20009;-65
2021/04/06 02:29:04;;;;;;;7.18;2.30;;;20.20;46.00;;;;;;7709700;23;20505;-65
2021/04/06 02:32:07;;;;;;;5.13;1.85;;;20.20;45.90;;;;;;7709727;23;20012;-64
2021/04/06 02:35:10;;;;;;;6.75;2.08;;;20.20;45.90;;;;;;7709518;23;20087;-64
2021/04/06 02:38:11;;;;;;;6.25;2.05;;;20.20;45.80;;;;;;7709674;23;20086;-65
2021/04/06 02:41:14;;;;;;;3.72;1.50;;;20.20;45.80;;;;;;7709478;23;20008;-65
2021/04/06 02:44:18;;;;;;;7.53;1.90;;;20.20;45.80;;;;;;7709631;23;20005;-65
2021/04/06 02:47:18;;;;;;;4.90;1.75;;;20.20;45.70;;;;;;7708079;23;20024;-65
2021/04/06 02:50:20;;;;;;;5.90;1.65;;;20.20;45.70;;;;;;7709308;23;20017;-65
2021/04/06 02:53:20;;;;;;;4.18;1.67;;;20.20;45.70;;;;;;7709372;23;20009;-65
2021/04/06 02:56:34;;;;;;;5.72;1.45;;;20.20;45.70;;;;;;7709693;23;20071;-65
2021/04/06 02:59:38;;;;;;;4.03;1.60;;;20.20;45.60;;;;;;7709396;23;20448;-64
2021/04/06 03:02:40;;;;;;;5.03;1.52;;;20.20;45.60;;;;;;7709639;23;20455;-64
2021/04/06 03:05:40;;;;;;;3.65;1.35;;;20.20;45.60;;;;;;7709420;23;20083;-63
2021/04/06 03:08:42;;;;;;;4.13;1.60;;;20.20;45.60;;;;;;7709779;23;20008;-64
2021/04/06 03:11:45;;;;;;;3.80;1.30;;;20.20;45.60;;;;;;7707348;23;20020;-64
2021/04/06 03:14:47;;;;;;;2.53;1.10;;;20.20;45.50;;;;;;7709503;23;20079;-65
2021/04/06 03:17:49;;;;;;;3.10;1.40;;;20.20;45.50;;;;;;7708990;23;20361;-64
2021/04/06 03:20:50;;;;;;;5.35;1.40;;;20.20;45.50;;;;;;7709232;23;20339;-65
2021/04/06 03:23:51;;;;;;;3.80;1.20;;;20.20;45.60;;;;;;7709133;23;20005;-65
2021/04/06 03:26:51;;;;;;;3.17;1.15;;;20.20;45.60;;;;;;7709002;23;20013;-65
2021/04/06 03:29:52;;;;;;;3.95;1.35;;;20.20;45.50;;;;;;7709221;23;20458;-63
2021/04/06 03:32:54;;;;;;;3.88;1.42;;;20.20;45.50;;;;;;7709889;23;20078;-65
2021/04/06 03:35:54;;;;;;;3.63;1.20;;;20.20;45.50;;;;;;7709533;23;20051;-65
2021/04/06 03:39:00;;;;;;;5.00;1.58;;;20.20;45.50;;;;;;7709131;23;20008;-65
2021/04/06 03:42:02;;;;;;;3.75;1.20;;;20.20;45.50;;;;;;7709182;23;20001;-65
2021/04/06 03:45:07;;;;;;;4.07;1.50;;;20.20;45.50;;;;;;7708912;23;20011;-65
2021/04/06 03:48:19;;;;;;;3.40;1.05;;;20.20;45.50;;;;;;7708720;23;20376;-65
2021/04/06 03:51:30;;;;;;;3.42;1.10;;;20.20;45.40;;;;;;7709228;23;20012;-65
2021/04/06 03:54:33;;;;;;;3.42;1.05;;;20.20;45.50;;;;;;7709468;23;20009;-65
2021/04/06 03:57:55;;;;;;;2.17;0.90;;;20.20;45.40;;;;;;7708867;23;20004;-65
2021/04/06 04:00:55;;;;;;;2.92;1.10;;;20.20;45.40;;;;;;7709753;23;20001;-65
2021/04/06 04:03:57;;;;;;;2.50;0.93;;;20.20;45.40;;;;;;7709277;23;20004;-64
2021/04/06 04:07:03;;;;;;;3.22;1.00;;;20.20;45.40;;;;;;7709219;23;20001;-65
2021/04/06 04:10:08;;;;;;;1.95;0.77;;;20.20;45.40;;;;;;7708933;23;20091;-65
2021/04/06 04:13:09;;;;;;;3.03;1.10;;;20.20;45.40;;;;;;7708719;23;20417;-65
2021/04/06 04:16:09;;;;;;;2.08;0.95;;;20.20;45.40;;;;;;7709259;23;20202;-65
2021/04/06 04:19:10;;;;;;;2.90;1.13;;;20.20;45.40;;;;;;7709171;23;20455;-65
2021/04/06 04:22:11;;;;;;;2.40;0.95;;;20.20;45.50;;;;;;7709023;23;20036;-65
2021/04/06 04:25:14;;;;;;;3.33;1.20;;;20.20;45.40;;;;;;7710131;23;20074;-65
2021/04/06 04:28:14;;;;;;;1.83;0.80;;;20.20;45.30;;;;;;7711284;23;20008;-65
2021/04/06 04:31:16;;;;;;;3.90;1.33;;;20.20;45.30;;;;;;7710770;23;20344;-65
2021/04/06 04:34:17;;;;;;;1.88;0.73;;;20.20;45.30;;;;;;7712124;23;20286;-65
2021/04/06 04:37:18;;;;;;;1.75;0.80;;;20.20;45.30;;;;;;7711084;23;20408;-65
2021/04/06 04:40:18;;;;;;;2.65;1.02;;;20.20;45.30;;;;;;7711430;23;20079;-64
2021/04/06 04:43:19;;;;;;;2.75;1.00;;;20.20;45.30;;;;;;7710834;23;20001;-65
2021/04/06 04:46:19;;;;;;;2.38;0.95;;;20.20;46.00;;;;;;7711113;23;20090;-65
2021/04/06 04:49:20;;;;;;;2.42;1.13;;;20.20;45.30;;;;;;7710070;23;20020;-65
2021/04/06 04:52:20;;;;;;;2.33;1.00;;;20.20;45.30;;;;;;7711057;23;20013;-65
2021/04/06 04:55:21;;;;;;;2.85;0.95;;;20.20;45.30;;;;;;7711080;23;20008;-65
2021/04/06 04:58:22;;;;;;;0.90;0.70;;;20.20;45.20;;;;;;7709292;23;20036;-65
2021/04/06 05:01:23;;;;;;;3.58;0.85;;;20.20;45.30;;;;;;7710724;23;20011;-65
2021/04/06 05:04:23;;;;;;;1.95;0.65;;;20.20;45.20;;;;;;7710512;23;20009;-65
2021/04/06 05:07:24;;;;;;;1.73;0.75;;;20.20;45.20;;;;;;7710944;23;20084;-65
2021/04/06 05:10:24;;;;;;;1.92;0.73;;;20.20;45.20;;;;;;7710340;23;20008;-64
2021/04/06 05:13:26;;;;;;;2.55;1.10;;;20.20;45.20;;;;;;7710527;23;20314;-64
2021/04/06 05:16:26;;;;;;;2.28;1.00;;;20.20;45.20;;;;;;7711091;23;20092;-65
2021/04/06 05:19:27;;;;;;;1.63;0.73;;;20.20;45.20;;;;;;7710320;23;20396;-65
2021/04/06 05:22:28;;;;;;;1.23;0.80;;;20.20;45.20;;;;;;7710859;23;20004;-65
2021/04/06 05:25:28;;;;;;;1.77;0.88;;;20.20;45.20;;;;;;7710843;23;20007;-65
2021/04/06 05:28:29;;;;;;;2.92;0.93;;;20.20;45.20;;;;;;7710950;23;20017;-65
2021/04/06 05:31:29;;;;;;;2.28;0.68;;;20.20;45.20;;;;;;7710203;23;20012;-65
2021/04/06 05:34:30;;;;;;;2.45;0.80;;;20.20;45.10;;;;;;7710478;23;20083;-65
2021/04/06 05:37:30;;;;;;;1.45;0.63;;;20.20;45.10;;;;;;7709816;23;20582;-65
2021/04/06 05:40:31;;;;;;;1.85;0.85;;;20.20;45.10;;;;;;7710927;23;20036;-65
2021/04/06 05:43:34;;;;;;;1.25;0.68;;;20.20;45.20;;;;;;7710167;23;20424;-64
2021/04/06 05:46:36;;;;;;;1.65;0.73;;;20.20;45.20;;;;;;7711095;23;20000;-64
2021/04/06 05:49:37;;;;;;;1.83;1.00;;;20.20;45.10;;;;;;7709896;23;20017;-64
2021/04/06 05:52:38;;;;;;;1.08;0.57;;;20.20;45.10;;;;;;7710370;23;20000;-65
2021/04/06 05:55:38;;;;;;;1.95;0.70;;;20.20;45.10;;;;;;7710583;23;20051;-63
2021/04/06 05:58:39;;;;;;;1.13;0.60;;;20.20;45.10;;;;;;7710121;23;20528;-65
2021/04/06 06:01:42;;;;;;;1.90;0.70;;;20.20;45.10;;;;;;7710998;23;20004;-64
2021/04/06 06:04:43;;;;;;;1.20;0.70;;;20.20;45.10;;;;;;7711295;23;20012;-65
2021/04/06 06:07:44;;;;;;;1.73;0.73;;;20.20;45.20;;;;;;7707498;23;20004;-65
2021/04/06 06:10:44;;;;;;;1.33;0.70;;;20.20;45.10;;;;;;7708861;23;20514;-64
2021/04/06 06:13:45;;;;;;;1.13;0.60;;;20.20;45.10;;;;;;7711502;23;19996;-65
2021/04/06 06:16:45;;;;;;;1.73;0.63;;;20.20;45.20;;;;;;7711781;23;20057;-64
2021/04/06 06:19:49;;;;;;;1.23;0.63;;;20.20;45.10;;;;;;7711122;23;20059;-64
2021/04/06 06:22:49;;;;;;;1.38;0.75;;;20.20;45.10;;;;;;7712040;23;20015;-65
2021/04/06 06:26:02;;;;;;;0.68;0.50;;;20.20;45.10;;;;;;7711260;23;20009;-65
2021/04/06 06:29:19;;;;;;;1.63;0.60;;;20.20;45.10;;;;;;7710984;23;20000;-64
2021/04/06 06:32:21;;;;;;;1.17;0.55;;;20.20;45.10;;;;;;7711620;23;20072;-65
2021/04/06 06:35:34;;;;;;;2.33;0.60;;;20.20;45.00;;;;;;7711505;23;20012;-64
2021/04/06 06:38:39;;;;;;;1.48;0.70;;;20.20;45.00;;;;;;7698638;23;20452;-64
2021/04/06 06:41:39;;;;;;;1.83;0.70;;;20.20;45.00;;;;;;7707290;23;20004;-65
2021/04/06 06:44:40;;;;;;;1.42;0.70;;;20.20;45.00;;;;;;7707355;23;20396;-65
2021/04/06 06:47:55;;;;;;;2.67;0.63;;;20.20;45.10;;;;;;7708065;23;20442;-64
2021/04/06 06:50:57;;;;;;;1.53;0.70;;;20.20;45.10;;;;;;7708664;23;20047;-65
2021/04/06 06:53:58;;;;;;;1.17;0.50;;;20.20;45.20;;;;;;7709011;23;20004;-65
2021/04/06 06:57:08;;;;;;;0.85;0.50;;;20.20;45.20;;;;;;7707491;23;20439;-65
2021/04/06 07:00:12;;;;;;;2.35;0.90;;;20.20;45.20;;;;;;7709301;23;20005;-65
2021/04/06 07:03:15;;;;;;;2.33;0.65;;;20.20;45.20;;;;;;7708656;23;20570;-64
2021/04/06 07:06:23;;;;;;;1.70;0.70;;;20.20;45.20;;;;;;7706912;23;20008;-65
2021/04/06 07:09:29;;;;;;;1.70;0.63;;;20.20;45.20;;;;;;7706192;23;20004;-65
2021/04/06 07:12:30;;;;;;;1.05;0.52;;;20.20;45.20;;;;;;7709823;23;20004;-64
2021/04/06 07:15:31;;;;;;;2.92;0.80;;;20.20;45.20;;;;;;7709966;23;20016;-64
2021/04/06 07:18:32;;;;;;;2.63;0.68;;;20.20;45.30;;;;;;7709890;23;20012;-65
2021/04/06 07:21:35;;;;;;;1.30;0.50;;;20.20;45.30;;;;;;7709369;23;20032;-65
2021/04/06 07:24:37;;;;;;;1.23;0.50;;;20.20;45.30;;;;;;7710606;23;20049;-65
2021/04/06 07:27:43;;;;;;;2.20;0.57;;;20.20;46.00;;;;;;7708158;23;20016;-65
2021/04/06 07:30:45;;;;;;;4.07;1.10;;;20.20;45.40;;;;;;7709484;23;20024;-65
2021/04/06 07:33:48;;;;;;;1.30;0.50;;;20.20;45.40;;;;;;7710461;23;20388;-65
2021/04/06 07:36:49;;;;;;;2.05;0.80;;;20.20;45.40;;;;;;7710867;23;20072;-64
2021/04/06 07:39:54;;;;;;;2.38;0.68;;;20.20;45.40;;;;;;7710652;23;20005;-65
2021/04/06 07:42:54;;;;;;;1.83;0.52;;;20.20;45.40;;;;;;7709579;23;20004;-65
2021/04/06 07:45:55;;;;;;;1.60;0.70;;;20.20;45.40;;;;;;7710174;23;20004;-65
2021/04/06 07:48:56;;;;;;;2.13;0.80;;;20.20;45.40;;;;;;7710259;23;20055;-65
2021/04/06 07:51:59;;;;;;;2.95;0.70;;;20.20;45.50;;;;;;7710364;23;20017;-65
2021/04/06 07:54:59;;;;;;;1.20;0.60;;;20.20;45.50;;;;;;7710075;23;20015;-65
2021/04/06 07:58:00;;;;;;;1.83;0.52;;;20.20;45.40;;;;;;7710204;23;20012;-65
2021/04/06 08:01:08;;;;;;;2.75;0.77;;;20.20;45.50;;;;;;7710697;23;20043;-65
2021/04/06 08:04:08;;;;;;;2.13;0.60;;;20.20;45.50;;;;;;7711981;23;20336;-65
2021/04/06 08:07:24;;;;;;;3.65;0.98;;;20.20;45.50;;;;;;7712494;23;20008;-65
2021/04/06 08:10:24;;;;;;;2.92;0.70;;;20.20;45.50;;;;;;7712571;23;20016;-65
2021/04/06 08:13:27;;;;;;;0.98;0.50;;;20.20;45.50;;;;;;7712299;23;20011;-65
2021/04/06 08:16:27;;;;;;;1.92;0.40;;;20.20;45.50;;;;;;7712325;23;20360;-65
2021/04/06 08:19:31;;;;;;;1.25;0.55;;;20.20;45.50;;;;;;7712916;23;20011;-65
2021/04/06 08:23:03;;;;;;;1.92;0.50;;;20.20;45.50;;;;;;7712765;23;20016;-64
2021/04/06 08:26:03;;;;;;;1.00;0.52;;;20.20;45.60;;;;;;7712398;23;20062;-64
2021/04/06 08:29:22;;;;;;;2.22;0.70;;;20.20;45.50;;;;;;7712508;23;20004;-65
2021/04/06 08:32:23;;;;;;;2.60;0.50;;;20.20;45.60;;;;;;7712918;23;20012;-65
2021/04/06 08:38:46;;;;;;;1.65;0.65;;;20.20;45.50;;;;;;7712425;23;20012;-63
2021/04/06 08:41:47;;;;;;;1.48;0.75;;;20.20;45.50;;;;;;7712945;23;20044;-65
2021/04/06 08:44:55;;;;;;;1.95;0.70;;;20.20;45.60;;;;;;7712773;23;20430;-65
2021/04/06 08:47:56;;;;;;;1.27;0.60;;;20.20;45.60;;;;;;7711649;23;20005;-64
2021/04/06 08:50:57;;;;;;;1.23;0.63;;;20.20;45.60;;;;;;7711891;23;20463;-64
2021/04/06 08:54:07;;;;;;;2.65;0.70;;;20.20;45.60;;;;;;7711883;23;20027;-65
2021/04/06 08:57:09;;;;;;;0.75;0.50;;;20.20;45.60;;;;;;7711361;23;20401;-64
2021/04/06 09:00:12;;;;;;;1.02;0.57;;;20.20;45.60;;;;;;7712262;23;20005;-65
2021/04/06 09:03:13;;;;;;;2.38;0.70;;;20.20;45.70;;;;;;7712418;23;20135;-65
2021/04/06 09:06:13;;;;;;;1.80;0.50;;;20.20;45.60;;;;;;7711239;23;20008;-65
2021/04/06 09:09:18;;;;;;;1.42;0.65;;;20.20;45.70;;;;;;7712288;23;20103;-64
2021/04/06 09:12:19;;;;;;;1.23;0.60;;;20.20;45.70;;;;;;7712030;23;20832;-65
2021/04/06 09:15:20;;;;;;;1.65;0.52;;;20.20;45.70;;;;;;7710941;23;20012;-65
2021/04/06 09:18:21;;;;;;;2.55;0.60;;;20.20;45.60;;;;;;7712513;23;20064;-65
2021/04/06 09:21:24;;;;;;;1.95;0.50;;;20.20;45.60;;;;;;7711476;23;20009;-65
2021/04/06 09:24:25;;;;;;;1.33;0.52;;;20.20;45.50;;;;;;7711368;23;20112;-64
2021/04/06 09:27:26;;;;;;;1.35;0.75;;;20.20;45.60;;;;;;7711007;23;20011;-65
2021/04/06 09:30:32;;;;;;;0.57;0.40;;;20.20;45.50;;;;;;7711576;23;20444;-65
2021/04/06 09:33:33;;;;;;;1.45;0.60;;;20.20;45.50;;;;;;7709783;23;20001;-65
2021/04/06 09:36:34;;;;;;;3.53;1.33;;;20.20;45.40;;;;;;7711416;23;20005;-65
2021/04/06 09:39:37;;;;;;;5.97;1.00;;;20.20;44.70;;;;;;7711062;23;20337;-65
2021/04/06 09:42:38;;;;;;;7.57;1.23;;;20.20;44.00;;;;;;7711818;23;20005;-65
2021/04/06 09:45:38;;;;;;;5.40;1.55;;;20.10;43.70;;;;;;7711246;23;20011;-65
2021/04/06 09:48:39;;;;;;;2.65;1.05;;;20.10;43.90;;;;;;7710095;23;20468;-65
2021/04/06 09:51:44;;;;;;;3.97;1.20;;;20.10;43.70;;;;;;7710550;23;20027;-62
2021/04/06 09:54:51;;;;;;;6.00;1.23;;;20.10;43.80;;;;;;7711533;23;20005;-65
2021/04/06 09:57:58;;;;;;;4.15;1.33;;;20.10;43.90;;;;;;7710188;23;20010;-65
2021/04/06 10:00:58;;;;;;;4.18;1.10;;;20.10;44.00;;;;;;7711335;23;20004;-65
2021/04/06 10:04:01;;;;;;;7.05;1.52;;;20.10;44.00;;;;;;7711223;23;20005;-64
2021/04/06 10:07:17;;;;;;;3.58;1.20;;;20.10;44.00;;;;;;7710944;23;20019;-65
2021/04/06 10:10:21;;;;;;;6.95;1.40;;;20.10;44.10;;;;;;7710076;23;20324;-65
2021/04/06 10:13:22;;;;;;;4.20;1.13;;;20.10;44.10;;;;;;7710714;23;20019;-65
2021/04/06 10:16:23;;;;;;;2.97;1.27;;;20.10;44.20;;;;;;7710785;23;20055;-65
2021/04/06 10:19:26;;;;;;;3.47;1.20;;;20.10;44.20;;;;;;7710616;23;20344;-65
2021/04/06 10:22:48;;;;;;;2.78;0.90;;;20.10;44.20;;;;;;7710902;23;20333;-65
2021/04/06 10:25:48;;;;;;;3.13;1.08;;;20.20;44.30;;;;;;7711327;23;20084;-65
2021/04/06 10:29:07;;;;;;;3.55;1.52;;;20.20;44.40;;;;;;7710711;23;20651;-65
2021/04/06 10:32:21;;;;;;;8.23;1.30;;;20.20;44.40;;;;;;7710880;23;20013;-65
2021/04/06 10:35:26;;;;;;;3.95;1.23;;;20.20;44.40;;;;;;7710795;23;20062;-64
2021/04/06 10:38:36;;;;;;;3.30;1.00;;;20.20;44.40;;;;;;7710435;23;20007;-65
2021/04/06 10:41:37;;;;;;;2.10;0.93;;;20.10;44.30;;;;;;7710300;23;20051;-65
2021/04/06 10:44:40;;;;;;;3.95;1.08;;;20.20;44.40;;;;;;7710537;23;20024;-65
2021/04/06 10:47:41;;;;;;;3.00;1.10;;;20.20;44.50;;;;;;7710471;23;20015;-65
2021/04/06 10:50:46;;;;;;;3.35;1.08;;;20.20;44.50;;;;;;7707398;23;20024;-64
2021/04/06 10:53:49;;;;;;;2.25;0.90;;;20.20;44.30;;;;;;7710172;23;20011;-65
2021/04/06 10:56:54;;;;;;;2.55;1.08;;;20.20;44.30;;;;;;7709260;23;20000;-65
2021/04/06 10:59:55;;;;;;;7.28;1.00;;;20.20;44.30;;;;;;7709367;23;20047;-65
2021/04/06 11:03:14;;;;;;;2.45;1.10;;;20.20;44.00;;;;;;7708694;23;20303;-65
2021/04/06 11:06:16;;;;;;;3.55;1.70;;;20.20;44.00;;;;;;7709692;23;20316;-65
2021/04/06 11:09:19;;;;;;;4.82;1.98;;;20.20;44.30;;;;;;7707354;23;20005;-64
2021/04/06 11:12:20;;;;;;;10.38;2.72;;;20.20;45.30;;;;;;7708253;23;20017;-65
2021/04/06 11:15:20;;;;;;;4.28;1.92;;;20.20;45.70;;;;;;7708466;23;20518;-65
2021/04/06 11:18:21;;;;;;;6.25;2.20;;;20.20;45.60;;;;;;7708885;23;20043;-65
2021/04/06 11:21:21;;;;;;;6.18;1.88;;;20.20;45.70;;;;;;7709068;23;20009;-65
2021/04/06 11:24:25;;;;;;;13.27;2.78;;;20.20;45.90;;;;;;7709397;23;20086;-65
2021/04/06 11:27:25;;;;;;;7.72;2.22;;;20.20;46.10;;;;;;7708422;23;20069;-65
2021/04/06 11:30:35;;;;;;;10.43;2.28;;;20.20;46.00;;;;;;7709752;23;20429;-65
2021/04/06 11:33:36;;;;;;;7.00;1.83;;;20.20;45.90;;;;;;7708718;23;20031;-64
2021/04/06 11:36:36;;;;;;;5.30;1.83;;;20.20;45.70;;;;;;7710681;23;20008;-65
2021/04/06 11:39:39;;;;;;;4.35;2.00;;;20.20;45.60;;;;;;7710985;23;20031;-64
2021/04/06 11:42:40;;;;;;;4.68;1.63;;;20.20;45.30;;;;;;7710612;23;20008;-65
2021/04/06 11:45:40;;;;;;;6.05;1.40;;;20.20;45.20;;;;;;7712640;23;20455;-65
2021/04/06 11:48:41;;;;;;;6.45;1.65;;;20.20;45.00;;;;;;7708696;23;20095;-65
2021/04/06 11:51:42;;;;;;;5.75;1.45;;;20.20;45.20;;;;;;7711326;23;20028;-64
2021/04/06 11:54:43;;;;;;;6.05;1.95;;;20.20;45.60;;;;;;7710999;23;20009;-64
2021/04/06 11:57:44;;;;;;;4.82;1.70;;;20.20;45.60;;;;;;7709509;23;20032;-64
2021/04/06 12:00:45;;;;;;;3.35;1.40;;;20.20;45.00;;;;;;7711331;23;20325;-65
2021/04/06 12:03:45;;;;;;;3.97;1.48;;;20.20;45.10;;;;;;7712862;23;20004;-64
2021/04/06 12:06:46;;;;;;;11.32;1.85;;;20.20;45.30;;;;;;7712106;23;20058;-64
2021/04/06 12:09:46;;;;;;;4.15;1.30;;;20.20;45.30;;;;;;7712951;23;20044;-64
2021/04/06 12:12:47;;;;;;;7.65;1.48;;;20.20;45.30;;;;;;7712791;23;20049;-65
2021/04/06 12:15:48;;;;;;;3.83;1.15;;;20.20;45.10;;;;;;7713279;23;20004;-64
2021/04/06 12:18:48;;;;;;;3.28;1.20;;;20.20;45.20;;;;;;7711343;23;20062;-64
2021/04/06 12:21:49;;;;;;;3.40;1.27;;;20.20;45.20;;;;;;7712782;23;20420;-64
2021/04/06 12:24:49;;;;;;;3.60;1.25;;;20.20;45.30;;;;;;7712504;23;20004;-65
2021/04/06 12:27:51;;;;;;;3.42;1.30;;;20.20;45.30;;;;;;7712294;23;20518;-66
2021/04/06 12:30:51;;;;;;;2.92;1.20;;;20.20;45.30;;;;;;7712169;23;20390;-64
2021/04/06 12:33:52;;;;;;;3.22;1.40;;;20.20;45.30;;;;;;7712365;23;20360;-64
2021/04/06 12:36:52;;;;;;;4.63;1.20;;;20.20;45.20;;;;;;7712363;23;20004;-65
2021/04/06 12:39:53;;;;;;;2.88;1.08;;;20.20;45.30;;;;;;7711966;23;20012;-64
2021/04/06 12:42:53;;;;;;;2.97;1.17;;;20.20;45.30;;;;;;7712127;23;20036;-64
2021/04/06 12:45:54;;;;;;;3.13;1.23;;;20.20;45.40;;;;;;7712273;23;20498;-64
2021/04/06 12:48:54;;;;;;;3.63;1.15;;;20.20;45.10;;;;;;7709927;23;20016;-64
2021/04/06 12:51:55;;;;;;;6.28;1.00;;;20.20;45.30;;;;;;7712073;23;20020;-65
2021/04/06 12:54:55;;;;;;;6.97;1.10;;;20.20;45.30;;;;;;7710955;23;20031;-65
2021/04/06 12:57:56;;;;;;;2.35;1.10;;;20.20;45.30;;;;;;7712342;23;20012;-65
2021/04/06 13:00:57;;;;;;;2.58;1.00;;;20.20;45.30;;;;;;7712060;23;20389;-65
2021/04/06 13:03:58;;;;;;;3.90;1.20;;;20.20;45.40;;;;;;7710234;23;20009;-64
2021/04/06 13:06:58;;;;;;;3.40;1.10;;;20.20;45.30;;;;;;7710891;23;20011;-65
2021/04/06 13:09:59;;;;;;;3.10;1.08;;;20.20;45.30;;;;;;7711935;23;20059;-64
2021/04/06 13:12:59;;;;;;;1.58;0.88;;;20.20;45.40;;;;;;7712725;23;20000;-65
2021/04/06 13:16:00;;;;;;;6.18;1.20;;;20.20;45.30;;;;;;7711817;23;20355;-64
2021/04/06 13:19:01;;;;;;;7.20;1.45;;;20.20;45.20;;;;;;7711052;23;20044;-64
2021/04/06 13:22:01;;;;;;;4.38;1.42;;;20.20;45.20;;;;;;7712675;23;20352;-65
2021/04/06 13:25:04;;;;;;;4.43;1.35;;;20.20;45.50;;;;;;7710531;23;20005;-66
2021/04/06 13:28:04;;;;;;;3.63;1.10;;;20.20;45.30;;;;;;7711673;23;20043;-65
2021/04/06 13:31:05;;;;;;;2.55;1.00;;;20.20;45.20;;;;;;7711387;23;20479;-65
2021/04/06 13:34:06;;;;;;;5.85;1.10;;;20.20;45.30;;;;;;7712161;23;20058;-67
2021/04/06 13:37:07;;;;;;;3.67;0.93;;;20.20;45.30;;;;;;7712902;23;20014;-65
2021/04/06 13:40:09;;;;;;;4.07;1.15;;;20.20;45.30;;;;;;7711509;23;20332;-65
2021/04/06 13:43:10;;;;;;;1.90;0.90;;;20.20;45.30;;;;;;7711195;23;20027;-65
2021/04/06 13:46:10;;;;;;;3.97;1.00;;;20.20;45.40;;;;;;7709514;23;20004;-64
2021/04/06 13:49:11;;;;;;;4.45;1.00;;;20.20;45.30;;;;;;7711133;23;20020;-65
2021/04/06 13:52:11;;;;;;;3.85;1.23;;;20.20;45.30;;;;;;7709003;23;20025;-65
2021/04/06 13:55:14;;;;;;;2.65;0.90;;;20.20;45.40;;;;;;7710882;23;20008;-64
2021/04/06 13:58:14;;;;;;;1.38;0.70;;;20.20;45.50;;;;;;7710299;23;20004;-65
2021/04/06 14:01:15;;;;;;;2.58;1.08;;;20.20;45.40;;;;;;7711240;23;20024;-65
2021/04/06 14:04:15;;;;;;;1.63;0.80;;;20.20;45.30;;;;;;7711432;23;20001;-64
2021/04/06 14:07:17;;;;;;;3.13;1.00;;;20.20;45.30;;;;;;7710887;23;20062;-65
2021/04/06 14:10:17;;;;;;;1.98;0.73;;;20.20;45.40;;;;;;7710543;23;20080;-64
2021/04/06 14:13:18;;;;;;;2.92;0.70;;;20.20;45.50;;;;;;7711793;23;20015;-64
2021/04/06 14:16:19;;;;;;;3.47;1.10;;;20.20;45.30;;;;;;7710965;23;20028;-64
2021/04/06 14:19:19;;;;;;;6.05;1.10;;;20.20;45.40;;;;;;7711023;23;20004;-65
2021/04/06 14:22:20;;;;;;;1.98;0.82;;;20.20;45.40;;;;;;7710015;23;20448;-65
2021/04/06 14:25:23;;;;;;;3.05;1.10;;;20.20;45.30;;;;;;7710537;23;20009;-64
2021/04/06 14:28:24;;;;;;;2.33;1.00;;;20.20;45.50;;;;;;7709963;23;20009;-64
2021/04/06 14:31:25;;;;;;;2.85;1.13;;;20.10;45.50;;;;;;7710047;23;20498;-61
2021/04/06 14:34:26;;;;;;;1.60;0.70;;;20.10;45.50;;;;;;7710340;23;20000;-64
2021/04/06 14:37:26;;;;;;;2.03;1.05;;;20.20;45.60;;;;;;7709800;23;20322;-64
2021/04/06 14:40:28;;;;;;;1.27;0.73;;;20.10;45.50;;;;;;7710100;23;20005;-64
2021/04/06 14:43:34;;;;;;;2.72;0.88;;;20.10;45.60;;;;;;7711117;23;20008;-64
2021/04/06 14:46:35;;;;;;;3.78;0.85;;;20.20;45.60;;;;;;7710455;23;20328;-65
2021/04/06 14:49:37;;;;;;;3.42;0.90;;;20.20;45.60;;;;;;7710046;23;20020;-64
2021/04/06 14:52:37;;;;;;;1.70;0.98;;;20.10;45.60;;;;;;7708715;23;20024;-64
2021/04/06 14:55:39;;;;;;;1.60;0.90;;;20.20;45.60;;;;;;7710919;23;20004;-64
2021/04/06 14:58:47;;;;;;;1.58;0.98;;;20.10;45.60;;;;;;7709301;23;20464;-64
2021/04/06 15:01:48;;;;;;;1.42;0.90;;;20.10;45.60;;;;;;7710686;23;20004;-64
2021/04/06 15:04:48;;;;;;;2.53;0.80;;;20.10;45.50;;;;;;7711144;23;20314;-64
2021/04/06 15:07:51;;;;;;;2.05;0.77;;;20.10;45.50;;;;;;7710249;23;20084;-64
2021/04/06 15:10:57;;;;;;;4.45;1.30;;;20.10;45.50;;;;;;7709787;23;20017;-65
2021/04/06 15:13:58;;;;;;;4.20;1.02;;;20.10;45.60;;;;;;7711240;23;20372;-65
2021/04/06 15:16:58;;;;;;;3.33;0.90;;;20.10;45.50;;;;;;7710343;23;20079;-64
2021/04/06 15:20:02;;;;;;;3.45;0.80;;;20.20;45.60;;;;;;7711234;23;20027;-64
2021/04/06 15:23:09;;;;;;;1.45;0.63;;;20.20;45.50;;;;;;7709551;23;20015;-64
2021/04/06 15:26:11;;;;;;;1.50;0.80;;;20.20;45.70;;;;;;7711080;23;20005;-64
2021/04/06 15:29:12;;;;;;;4.00;0.85;;;20.10;45.40;;;;;;7710689;23;20004;-64
2021/04/06 15:32:13;;;;;;;2.83;0.82;;;20.20;45.60;;;;;;7710710;23;20043;-64
2021/04/06 15:35:14;;;;;;;2.17;0.85;;;20.20;45.60;;;;;;7709976;23;20005;-65
2021/04/06 15:38:29;;;;;;;1.30;0.70;;;20.10;45.60;;;;;;7710528;23;20924;-65
2021/04/06 15:41:29;;;;;;;4.07;1.00;;;20.20;45.60;;;;;;7710115;23;20012;-65
2021/04/06 15:44:30;;;;;;;1.70;0.80;;;20.20;45.60;;;;;;7710618;23;20399;-65
2021/04/06 15:47:30;;;;;;;1.55;0.60;;;20.10;45.60;;;;;;7709755;23;20005;-65
2021/04/06 15:50:35;;;;;;;1.17;0.70;;;20.20;45.60;;;;;;7711053;23;20467;-64
2021/04/06 15:53:39;;;;;;;1.38;0.60;;;20.20;45.70;;;;;;7710014;23;20084;-64